• Join FlightAware (Why Join?)
  • Login
  • US Flag 
02:14AM EDT


 

Airport Tracker/Info


-or-


 

Live Flight TrackerFlight Track Log ✈ CTL15 ✈ 13-May-2013 ✈ KMGY - KBKL

Flight Track Log - Related Links

Times and Time Zones

All times are in EDT time to prevent confusion due to time zone crossing. See the CTL15 flight status page for this flight to view local times or setup timezone preferences in your user account.

Time Position Orientation Groundspeed Altitude Reporting Facility
EDT Latitude Longitude Course Direction KTS MPH feet Rate Location/Type
07:41PM 39.6394 -84.1556 49° Northeast 137 158 3,500  Level Indianapolis Center
07:42PM 39.6683 -84.1081 52° Northeast 126 145 5,200 1,080 Climbing Indianapolis Center
07:43PM 39.6708 -84.1047 46° Northeast 128 147 5,300 1,140 Climbing Indianapolis Center
07:43PM 39.6875 -84.0753 54° Northeast 122 140 6,400 1,320 Climbing Indianapolis Center
07:44PM 39.6956 -84.0636 48° Northeast 125 144 6,700 480 Climbing Indianapolis Center
07:45PM 39.7189 -84.0253 52° Northeast 128 147 7,100 180 Climbing Indianapolis Center
07:46PM 39.7542 -83.9725 49° Northeast 176 203 7,100 -120 Level Indianapolis Center
07:47PM 39.7593 -83.9446 49° Northeast  Level FlightAware Approximate
07:47PM 39.7833 -83.9283 49° Northeast 172 198 6,900  Level Indianapolis Center
07:48PM 39.8167 -83.8786 49° Northeast 179 206 7,200  Climbing Indianapolis Center
07:49PM 39.8483 -83.8267 52° Northeast 180 207 7,000 -120 Descending Indianapolis Center
07:50PM 39.8858 -83.7833 42° Northeast 179 206 7,000  Level Indianapolis Center
07:51PM 39.9158 -83.7458 44° Northeast 178 205 7,100 60 Climbing Indianapolis Center
07:51PM 39.9228 -83.7392 36° Northeast 178 205 7,100  Level Indianapolis Center
07:52PM 39.9525 -83.7044 42° Northeast 180 207 7,100 60 Level Indianapolis Center
07:52PM 39.9608 -83.6956 39° Northeast 179 206 7,200  Climbing Indianapolis Center
07:53PM 39.9892 -83.6625 42° Northeast 177 204 7,100 -120 Descending Indianapolis Center
07:53PM 39.9986 -83.6519 41° Northeast 178 205 7,100 60 Level Indianapolis Center
07:54PM 40.0328 -83.6108 43° Northeast 180 207 7,200  Climbing Indianapolis Center
07:55PM 40.0628 -83.5736 44° Northeast 181 208 7,100 -120 Descending Indianapolis Center
07:55PM 40.0744 -83.5628 35° Northeast 181 208 7,100  Level Indianapolis Center
07:56PM 40.1039 -83.5269 43° Northeast 182 209 7,100  Level Indianapolis Center
07:56PM 40.1111 -83.5178 44° Northeast 180 207 7,100  Level Indianapolis Center
07:57PM 40.1358 -83.4900 41° Northeast 180 207 7,100 -120 Level Indianapolis Center
07:57PM 40.1556 -83.4661 43° Northeast 180 207 7,000 -120 Descending Indianapolis Center
07:58PM 40.1747 -83.4431 43° Northeast 179 206 7,000 60 Level Indianapolis Center
07:58PM 40.1925 -83.4219 42° Northeast 179 206 7,100 60 Climbing Indianapolis Center
07:59PM 40.2089 -83.4033 41° Northeast 178 205 7,100  Level Indianapolis Center
07:59PM 40.2292 -83.3781 44° Northeast 178 205 7,100  Level Indianapolis Center
08:00PM 40.2458 -83.3586 42° Northeast 180 207 7,100  Level Indianapolis Center
08:00PM 40.2661 -83.3319 45° Northeast 180 207 7,100  Level Indianapolis Center
08:01PM 40.2847 -83.3089 43° Northeast 183 211 7,100  Level Indianapolis Center
08:01PM 40.3028 -83.2867 43° Northeast 180 207 7,100 -120 Level Indianapolis Center
08:02PM 40.3419 -83.2439 40° Northeast 181 208 7,000  Descending Indianapolis Center
08:03PM 40.3786 -83.1994 43° Northeast 179 206 7,100  Climbing Indianapolis Center
08:04PM 40.4169 -83.1517 43° Northeast 186 214 7,000 -60 Descending Indianapolis Center
08:05PM 40.4542 -83.1067 43° Northeast 182 209 7,000  Level Indianapolis Center
08:06PM 40.4911 -83.0617 43° Northeast 180 207 7,000  Level Indianapolis Center
08:07PM 40.5336 -83.0125 41° Northeast 181 208 7,000 -60 Level Indianapolis Center
08:08PM 40.5700 -82.9669 44° Northeast 179 206 6,900  Descending Indianapolis Center
08:09PM 40.6050 -82.9175 47° Northeast 182 209 7,000 60 Climbing Indianapolis Center
08:10PM 40.6317 -82.8589 59° Northeast 184 212 7,100  Climbing Indianapolis Center
08:11PM 40.6578 -82.7992 60° Northeast 186 214 7,100 -120 Level Indianapolis Center
08:13PM 40.6878 -82.7431 55° Northeast 186 214 6,900 -60 Descending Indianapolis Center
08:14PM 40.7161 -82.6822 58° Northeast 191 220 7,000  Climbing Indianapolis Center
08:15PM 40.7447 -82.6256 56° Northeast 186 214 7,000  Level Indianapolis Center